createdAt,value
2017-07-10T00:36:07.727Z,22.371237999999998
2017-07-10T00:56:12.687Z,22.371237999999998
2017-07-10T01:16:17.868Z,22.371237999999998
2017-07-10T01:36:22.705Z,22.371237999999998
2017-07-10T01:56:27.850Z,22.371237999999998
2017-07-10T02:16:32.842Z,22.30876
2017-07-10T02:36:37.981Z,22.30876
2017-07-10T02:56:42.964Z,22.30876
2017-07-10T03:16:47.993Z,22.30876
2017-07-10T03:36:53.184Z,22.246281999999997
2017-07-10T03:56:58.080Z,22.30876
2017-07-10T04:17:03.179Z,22.246281999999997
2017-07-10T04:37:08.283Z,22.246281999999997
2017-07-10T04:57:13.311Z,22.246281999999997
2017-07-10T05:17:17.276Z,22.246281999999997
2017-07-10T05:37:22.285Z,22.246281999999997
2017-07-10T05:57:27.351Z,22.246281999999997
2017-07-10T06:17:32.497Z,22.246281999999997
2017-07-10T06:37:37.428Z,22.246281999999997
2017-07-10T06:57:42.469Z,22.246281999999997
2017-07-10T07:17:47.525Z,22.246281999999997
2017-07-10T07:37:52.595Z,22.246281999999997
2017-07-10T07:57:57.618Z,22.246281999999997
2017-07-10T08:18:02.863Z,22.246281999999997
2017-07-10T08:58:12.751Z,22.246281999999997
2017-07-10T12:39:08.279Z,22.558671999999998
2017-07-10T12:59:13.243Z,22.558671999999998
2017-07-10T13:19:18.217Z,22.496194
2017-07-10T13:39:23.805Z,22.496194
2017-07-10T13:59:28.418Z,22.558671999999998
2017-07-10T14:19:33.334Z,22.683628
2017-07-10T14:39:38.473Z,22.933539999999997
2017-07-10T14:59:43.716Z,22.746105999999997
2017-07-10T15:19:48.556Z,22.683628
2017-07-10T15:39:53.715Z,22.683628
2017-07-10T16:20:03.617Z,22.683628
2017-07-10T16:40:08.837Z,22.683628
2017-07-10T17:00:13.840Z,22.683628
2017-07-10T17:20:18.814Z,22.683628
2017-07-10T17:40:23.840Z,22.683628
2017-07-10T18:00:28.997Z,22.683628
2017-07-10T18:20:34.141Z,22.683628
2017-07-10T18:40:38.995Z,22.683628
2017-07-10T19:00:43.998Z,22.62115
2017-07-10T19:20:49.194Z,22.62115
2017-07-10T19:40:54.081Z,22.62115
2017-07-10T20:00:59.093Z,22.62115
2017-07-10T20:21:04.310Z,22.62115
2017-07-10T20:41:09.448Z,22.62115
2017-07-10T21:01:14.329Z,22.62115
2017-07-10T21:21:19.551Z,22.558671999999998
2017-07-10T21:41:24.404Z,22.558671999999998
2017-07-10T22:01:29.397Z,22.558671999999998
2017-07-10T22:21:34.935Z,22.558671999999998
2017-07-10T22:41:39.580Z,22.558671999999998
2017-07-10T23:01:44.541Z,22.558671999999998
2017-07-10T23:21:49.885Z,22.496194
2017-07-10T23:41:54.580Z,22.496194
